메인 페이지
METAR-TAF:

METAR-TAF

공항 :

하얼빈 타이핑 국제공항

하얼빈, 중국

위도: 45-45N, 경도: 126-46E, 고도: 143m

현재 날씨관측

예보는 41분 전, 21:00시(UTC)에 발표되었습니다.
남남서10kt
온도 7°C
습도 81%
기압 1003 hPa
시정 10km 이상
1500m 미만 상공 구름 및 적란운 없음

METAR: ZYHB 222100Z 20005MPS CAVOK 07/04 Q1003 NOSIG

시각: 05:41 (21:41 UTC)

예보

예보는 7 시간 1분 전, 14:40시(UTC)에 발표되었습니다.
예보 대상 시간: 22일 18시부터 23일 18시까지 (UTC)
남남서10kt
시정: 6000m
고도 2600ft 상공 구름 보통

TAF: ZYHB 221440Z 2218/2318 21005MPS 6000 SCT026 TX20/2306Z TN05/2221Z

4,000개 이상의 공항 관측 자료 및 예보 (METAR 및 TAF 보고).

지도상에서 검색 가능한 기상관측소가 노란 점과 빨간 점으로 표시되어 있습니다.

기상관측소 명을 보려면 표시 위로 마우스를 이동하세요.

날씨 관측과 예보를 보려면 클릭하세요.

지도 변경 : 확대하려면 엑스 표시가 있는 녹색 버튼, 축소하려면 빼기 표시가 있는 녹색 버튼, 다음 페이지의 지도를 보려면 녹색 화살표를 클릭하세요.


METAR-TAF: